Time;durP1;ratioP1;P1;durP2;ratioP2;P2;SDS_P1;SDS_P2;PMS_P1;PMS_P2;Temp;Humidity;BMP_temperature;BMP_pressure;BME280_temperature;BME280_humidity;BME280_pressure;Samples;Min_cycle;Max_cycle;Signal;HPM_P1;HPM_P2
2023/01/10 00:00:33;;;;;;;;;;;;;;;18.77;61.49;97856.56;2038890;28;19956;-49
2023/01/10 00:01:35;;;;;;;;;;;;;;;18.77;61.60;97855.75;2034751;28;19965;-48
2023/01/10 00:02:35;;;;;;;;;;;;;;;18.76;61.55;97849.56;2036585;28;19923;-49
2023/01/10 00:03:37;;;;;;;;;;;;;;;18.75;61.56;97858.66;2035404;28;20001;-49
2023/01/10 00:04:37;;;;;;;;;;;;;;;18.74;61.67;97851.63;2036808;28;19930;-48
2023/01/10 00:05:40;;;;;;;;;;;;;;;18.73;62.02;97847.28;2043930;28;19978;-50
2023/01/10 00:06:40;;;;;;;;;;;;;;;18.72;61.55;97848.31;2039172;28;19933;-48
2023/01/10 00:07:42;;;;;;;;;;;;;;;18.72;61.75;97845.63;2036109;28;19928;-50
2023/01/10 00:08:43;;;;;;;;;;;;;;;18.70;61.67;97851.22;2038813;28;20397;-49
2023/01/10 00:09:46;;;;;;;;;;;;;;;18.70;61.80;97845.03;2041373;28;19938;-50
2023/01/10 00:10:46;;;;;;;;;;;;;;;18.69;61.76;97846.06;2037682;28;20871;-49
2023/01/10 00:13:25;;;;;;;;;;;;;;;18.69;61.84;97852.28;2039037;28;19928;-48
2023/01/10 00:14:27;;;;;;;;;;;;;;;18.67;61.80;97850.88;2042487;28;20921;-48
2023/01/10 00:15:31;;;;;;;;;;;;;;;18.65;61.86;97852.94;2041535;28;19932;-50
2023/01/10 00:16:32;;;;;;;;;;;;;;;18.67;61.76;97850.88;2039369;28;19933;-48
2023/01/10 00:17:33;;;;;;;;;;;;;;;18.67;61.98;97851.69;2038660;28;19960;-51
2023/01/10 00:18:33;;;;;;;;;;;;;;;18.67;61.79;97843.63;2039152;28;19930;-52
2023/01/10 00:19:35;;;;;;;;;;;;;;;18.68;61.78;97852.50;2037609;28;19922;-48
2023/01/10 00:20:35;;;;;;;;;;;;;;;18.64;61.73;97846.75;2042503;28;19926;-49
2023/01/10 00:21:38;;;;;;;;;;;;;;;18.64;61.97;97845.94;2043553;28;20548;-48
2023/01/10 00:22:38;;;;;;;;;;;;;;;18.63;62.05;97852.34;2041210;28;20515;-51
2023/01/10 00:23:40;;;;;;;;;;;;;;;18.62;61.85;97842.66;2043345;28;19922;-52
2023/01/10 00:24:42;;;;;;;;;;;;;;;18.63;61.79;97842.41;2036077;28;19949;-48
2023/01/10 00:25:46;;;;;;;;;;;;;;;18.61;61.75;97849.91;2039713;28;19922;-52
2023/01/10 00:26:49;;;;;;;;;;;;;;;18.61;61.93;97851.72;2040923;28;19922;-49
2023/01/10 00:27:56;;;;;;;;;;;;;;;18.61;61.77;97847.22;2042819;28;19996;-51
2023/01/10 00:28:57;;;;;;;;;;;;;;;18.57;61.88;97850.56;2039051;28;19926;-49
2023/01/10 00:30:03;;;;;;;;;;;;;;;18.56;61.85;97854.28;2039183;28;19933;-51
2023/01/10 00:31:05;;;;;;;;;;;;;;;18.54;61.90;97854.50;2039434;28;19922;-48
2023/01/10 00:32:07;;;;;;;;;;;;;;;18.52;62.10;97854.72;2037967;28;19937;-51
2023/01/10 00:33:09;;;;;;;;;;;;;;;18.49;62.08;97860.53;2041391;28;19931;-51
2023/01/10 00:34:10;;;;;;;;;;;;;;;18.50;62.26;97858.69;2041576;28;20877;-52
2023/01/10 00:35:11;;;;;;;;;;;;;;;18.46;62.28;97860.16;2038747;28;19930;-48
2023/01/10 00:36:12;;;;;;;;;;;;;;;18.46;62.10;97863.66;2037413;28;19930;-51
2023/01/10 00:37:13;;;;;;;;;;;;;;;18.47;62.07;97867.16;2040170;28;19936;-49
2023/01/10 00:38:15;;;;;;;;;;;;;;;18.44;62.11;97868.44;2045084;28;19984;-49
2023/01/10 00:39:18;;;;;;;;;;;;;;;18.44;62.34;97870.28;2041320;28;19926;-49
2023/01/10 00:40:19;;;;;;;;;;;;;;;18.42;62.33;97870.53;2040428;28;19930;-50
2023/01/10 00:44:05;;;;;;;;;;;;;;;18.39;62.18;97876.34;2028472;28;19927;-52
2023/01/10 00:45:07;;;;;;;;;;;;;;;18.40;62.41;97877.16;2040717;28;19922;-48
2023/01/10 00:46:08;;;;;;;;;;;;;;;18.39;62.21;97880.91;2036729;28;19930;-48
2023/01/10 00:47:09;;;;;;;;;;;;;;;18.38;62.17;97880.03;2035832;28;19926;-48
2023/01/10 00:48:10;;;;;;;;;;;;;;;18.39;62.21;97887.06;2041063;28;19926;-49
2023/01/10 00:49:15;;;;;;;;;;;;;;;18.39;62.39;97895.13;2038569;28;19931;-48
2023/01/10 00:50:15;;;;;;;;;;;;;;;18.38;62.14;97896.16;2037470;28;20013;-48
2023/01/10 00:51:17;;;;;;;;;;;;;;;18.38;62.26;97901.53;2038400;28;19931;-48
2023/01/10 00:52:17;;;;;;;;;;;;;;;18.37;62.27;97894.53;2038852;28;20319;-48
2023/01/10 00:53:19;;;;;;;;;;;;;;;18.37;62.40;97904.44;2042457;28;19930;-49
2023/01/10 00:54:19;;;;;;;;;;;;;;;18.35;62.42;97907.34;2038169;28;19954;-48
2023/01/10 00:55:21;;;;;;;;;;;;;;;18.35;62.40;97901.16;2042262;28;20032;-52
2023/01/10 00:56:23;;;;;;;;;;;;;;;18.33;62.15;97904.06;2038583;28;20021;-51
2023/01/10 00:57:24;;;;;;;;;;;;;;;18.34;62.35;97904.88;2037925;28;19937;-49
2023/01/10 00:58:25;;;;;;;;;;;;;;;18.34;62.16;97905.69;2036415;28;20299;-48
2023/01/10 00:59:27;;;;;;;;;;;;;;;18.32;62.27;97907.78;2037610;28;19932;-50
2023/01/10 01:00:28;;;;;;;;;;;;;;;18.33;62.34;97911.28;2040870;28;19942;-50
2023/01/10 01:01:29;;;;;;;;;;;;;;;18.30;62.55;97910.69;2041109;28;22056;-47
2023/01/10 01:02:30;;;;;;;;;;;;;;;18.30;62.36;97910.69;2037021;28;22860;-51
2023/01/10 01:03:31;;;;;;;;;;;;;;;18.29;62.36;97917.09;2040465;28;19933;-52
2023/01/10 01:04:33;;;;;;;;;;;;;;;18.30;62.60;97915.22;2038834;28;19930;-48
2023/01/10 01:05:39;;;;;;;;;;;;;;;18.27;62.44;97916.47;2041024;28;19971;-50
2023/01/10 01:06:42;;;;;;;;;;;;;;;18.27;62.24;97916.47;2040427;28;19930;-49
2023/01/10 01:07:43;;;;;;;;;;;;;;;18.27;62.24;97926.41;2043207;28;19925;-47
2023/01/10 01:08:43;;;;;;;;;;;;;;;18.27;62.45;97921.03;2041327;28;19952;-50
2023/01/10 01:11:00;;;;;;;;;;;;;;;18.25;62.49;97929.31;2037016;28;19930;-49
2023/01/10 01:12:03;;;;;;;;;;;;;;;18.25;62.12;97928.50;2032728;28;19931;-51
2023/01/10 01:13:05;;;;;;;;;;;;;;;18.24;62.52;97924.97;2039437;28;20317;-49
2023/01/10 01:14:07;;;;;;;;;;;;;;;18.25;62.39;97923.13;2037524;28;20873;-48
2023/01/10 01:15:08;;;;;;;;;;;;;;;18.23;62.27;97933.25;2036760;28;19930;-48
2023/01/10 01:16:09;;;;;;;;;;;;;;;18.20;62.30;97929.16;2036829;28;19922;-49
2023/01/10 01:17:10;;;;;;;;;;;;;;;18.18;62.39;97930.41;2036896;28;19933;-47
2023/01/10 01:18:12;;;;;;;;;;;;;;;18.18;62.33;97923.16;2039625;28;19930;-50
2023/01/10 01:19:13;;;;;;;;;;;;;;;18.17;62.38;97931.44;2037197;28;19975;-50
2023/01/10 01:20:14;;;;;;;;;;;;;;;18.16;62.34;97925.25;2035920;28;19938;-48
2023/01/10 01:21:15;;;;;;;;;;;;;;;18.17;62.60;97928.78;2038883;28;20509;-52
2023/01/10 01:22:16;;;;;;;;;;;;;;;18.16;62.38;97930.59;2035784;28;19936;-51
2023/01/10 01:23:17;;;;;;;;;;;;;;;18.16;62.67;97927.91;2034495;28;19969;-49
2023/01/10 01:24:20;;;;;;;;;;;;;;;18.15;62.30;97934.34;2040265;28;19937;-49
2023/01/10 01:25:20;;;;;;;;;;;;;;;18.16;62.46;97935.16;2039002;28;19938;-48
2023/01/10 01:26:22;;;;;;;;;;;;;;;18.16;62.50;97933.28;2039249;28;19930;-50
2023/01/10 01:27:24;;;;;;;;;;;;;;;18.15;62.36;97937.03;2036102;28;19931;-49
2023/01/10 01:28:25;;;;;;;;;;;;;;;18.12;62.49;97937.47;2031851;28;20009;-49
2023/01/10 01:29:26;;;;;;;;;;;;;;;18.12;62.52;97942.81;2037160;28;19926;-49
2023/01/10 01:30:27;;;;;;;;;;;;;;;18.12;62.54;97936.63;2040440;28;19952;-52
2023/01/10 01:31:28;;;;;;;;;;;;;;;18.11;62.64;97943.03;2035977;28;19975;-48
2023/01/10 01:32:29;;;;;;;;;;;;;;;18.11;62.46;97948.41;2037754;28;19926;-49
2023/01/10 01:33:31;;;;;;;;;;;;;;;18.11;62.42;97953.75;2041653;28;19926;-50
2023/01/10 01:34:31;;;;;;;;;;;;;;;18.07;62.44;97954.19;2040891;28;19922;-48
2023/01/10 01:35:33;;;;;;;;;;;;;;;18.08;62.50;97961.22;2036718;28;19983;-52
2023/01/10 01:36:33;;;;;;;;;;;;;;;18.07;62.40;97959.56;2038652;28;20604;-48
2023/01/10 01:37:35;;;;;;;;;;;;;;;18.08;62.45;97966.59;2038572;28;19933;-50
2023/01/10 01:38:36;;;;;;;;;;;;;;;18.06;62.50;97965.16;2040392;28;19933;-49
2023/01/10 01:39:37;;;;;;;;;;;;;;;18.04;62.66;97959.19;2033077;28;19949;-49
2023/01/10 01:40:40;;;;;;;;;;;;;;;18.04;62.71;97969.91;2038490;28;19983;-50
2023/01/10 01:42:00;;;;;;;;;;;;;;;18.02;62.68;97969.31;2039633;28;20291;-51
2023/01/10 01:43:02;;;;;;;;;;;;;;;18.04;62.46;97970.75;2038721;28;19926;-47
2023/01/10 01:44:05;;;;;;;;;;;;;;;18.02;62.46;97975.50;2038601;28;20370;-49
2023/01/10 01:45:33;;;;;;;;;;;;;;;18.00;62.70;97979.44;2040983;28;20007;-49
2023/01/10 01:46:37;;;;;;;;;;;;;;;18.00;62.74;97977.59;2038201;28;19931;-51
2023/01/10 01:47:41;;;;;;;;;;;;;;;17.98;62.87;97998.44;2040512;28;19926;-50
2023/01/10 01:48:43;;;;;;;;;;;;;;;17.97;62.71;98002.16;2036774;28;19927;-49
2023/01/10 01:49:44;;;;;;;;;;;;;;;17.95;62.76;97996.19;2039277;28;19927;-50
2023/01/10 01:50:48;;;;;;;;;;;;;;;17.96;62.77;97999.69;2040304;28;19976;-48
2023/01/10 01:51:51;;;;;;;;;;;;;;;17.97;62.71;97996.81;2038658;28;19930;-49
2023/01/10 01:52:54;;;;;;;;;;;;;;;17.96;62.56;98005.06;2036325;28;20851;-49
2023/01/10 01:53:59;;;;;;;;;;;;;;;17.94;62.71;98001.75;2039589;28;19944;-50
2023/01/10 01:55:01;;;;;;;;;;;;;;;17.92;62.68;98001.97;2035379;28;20477;-50
2023/01/10 01:56:03;;;;;;;;;;;;;;;17.89;62.75;98002.41;2039745;28;19987;-49
2023/01/10 01:57:07;;;;;;;;;;;;;;;17.91;62.81;98008.38;2037223;28;20001;-48
2023/01/10 01:58:12;;;;;;;;;;;;;;;17.91;62.81;98008.38;2043303;28;20145;-48
2023/01/10 01:59:16;;;;;;;;;;;;;;;17.89;62.83;98010.47;2035430;28;19930;-52
2023/01/10 02:00:16;;;;;;;;;;;;;;;17.88;62.98;98013.34;2040351;28;21335;-48
2023/01/10 02:01:19;;;;;;;;;;;;;;;17.87;63.10;98017.91;2039182;28;19927;-48
2023/01/10 02:02:22;;;;;;;;;;;;;;;17.87;62.86;98012.53;2042759;28;19930;-50
2023/01/10 02:03:24;;;;;;;;;;;;;;;17.85;62.78;98018.09;2040570;28;19931;-49
2023/01/10 02:04:28;;;;;;;;;;;;;;;17.86;62.70;98021.63;2039816;28;19929;-50
2023/01/10 02:05:31;;;;;;;;;;;;;;;17.84;62.83;98018.31;2035536;28;19922;-51
2023/01/10 02:06:31;;;;;;;;;;;;;;;17.85;62.92;98020.78;2039138;28;20425;-49
2023/01/10 02:07:36;;;;;;;;;;;;;;;17.83;62.89;98019.38;2035855;28;19964;-49
2023/01/10 02:08:39;;;;;;;;;;;;;;;17.79;62.94;98010.09;2040648;28;19967;-51
2023/01/10 02:09:42;;;;;;;;;;;;;;;17.81;62.89;98010.72;2037818;28;19936;-49
2023/01/10 02:10:47;;;;;;;;;;;;;;;17.80;62.73;98015.25;2037500;28;19968;-48
2023/01/10 02:11:49;;;;;;;;;;;;;;;17.77;62.85;98010.25;2038933;28;19930;-48
2023/01/10 02:12:51;;;;;;;;;;;;;;;17.76;62.70;98014.00;2040181;28;20408;-50
2023/01/10 02:13:54;;;;;;;;;;;;;;;17.78;63.03;98011.09;2042859;28;19925;-51
2023/01/10 02:14:55;;;;;;;;;;;;;;;17.76;62.95;98007.81;2041312;28;19926;-50
2023/01/10 02:15:56;;;;;;;;;;;;;;;17.74;63.18;98005.31;2038001;28;19922;-48
2023/01/10 02:16:57;;;;;;;;;;;;;;;17.74;62.83;98012.56;2037679;28;19938;-50
2023/01/10 02:17:59;;;;;;;;;;;;;;;17.74;62.90;98012.56;2040019;28;19932;-49
2023/01/10 02:19:00;;;;;;;;;;;;;;;17.72;62.94;98018.16;2035493;28;20002;-50
2023/01/10 02:20:03;;;;;;;;;;;;;;;17.71;63.03;98012.97;2038637;28;19930;-49
2023/01/10 02:21:09;;;;;;;;;;;;;;;17.68;63.12;98019.59;2038601;28;19966;-48
2023/01/10 02:22:29;;;;;;;;;;;;;;;17.70;63.14;98019.38;2036608;28;19969;-48
2023/01/10 02:23:54;;;;;;;;;;;;;;;17.70;63.18;98022.06;2037964;28;19976;-51
2023/01/10 02:25:10;;;;;;;;;;;;;;;17.69;62.88;98023.09;2036743;28;19925;-49
2023/01/10 02:26:29;;;;;;;;;;;;;;;17.69;63.11;98033.81;2037222;28;20459;-47
2023/01/10 02:27:36;;;;;;;;;;;;;;;17.70;62.96;98032.81;2037064;28;19937;-48
2023/01/10 02:28:53;;;;;;;;;;;;;;;17.68;62.89;98034.88;2041059;28;19922;-49
2023/01/10 02:30:16;;;;;;;;;;;;;;;17.69;62.94;98033.81;2036927;28;19926;-50
2023/01/10 02:31:29;;;;;;;;;;;;;;;17.64;63.19;98034.47;2038948;28;19926;-52
2023/01/10 02:32:40;;;;;;;;;;;;;;;17.63;63.00;98030.97;2038343;28;19933;-49
2023/01/10 02:33:44;;;;;;;;;;;;;;;17.64;62.98;98034.47;2038517;28;20368;-49
2023/01/10 02:34:53;;;;;;;;;;;;;;;17.61;63.18;98030.34;2039632;28;20071;-50
2023/01/10 02:36:02;;;;;;;;;;;;;;;17.62;63.22;98029.31;2036952;28;19930;-50
2023/01/10 02:37:07;;;;;;;;;;;;;;;17.61;63.24;98029.53;2038725;28;20011;-49
2023/01/10 02:38:11;;;;;;;;;;;;;;;17.58;63.05;98030.78;2043070;28;19937;-47
2023/01/10 02:39:15;;;;;;;;;;;;;;;17.58;63.18;98032.66;2042722;28;19976;-51
2023/01/10 02:40:21;;;;;;;;;;;;;;;17.57;63.08;98028.28;2036001;28;20302;-50
2023/01/10 02:41:26;;;;;;;;;;;;;;;17.58;63.26;98028.09;2040342;28;19930;-49
2023/01/10 02:42:31;;;;;;;;;;;;;;;17.59;63.15;98031.59;2038505;28;19937;-50
2023/01/10 02:43:34;;;;;;;;;;;;;;;17.57;62.97;98039.84;2040423;28;19926;-48
2023/01/10 02:44:40;;;;;;;;;;;;;;;17.57;62.98;98033.66;2040018;28;19972;-48
2023/01/10 02:45:45;;;;;;;;;;;;;;;17.52;63.16;98042.31;2032553;28;20656;-48
2023/01/10 02:46:48;;;;;;;;;;;;;;;17.53;63.24;98035.94;2039132;28;19980;-49
2023/01/10 02:47:50;;;;;;;;;;;;;;;17.53;63.19;98044.00;2040023;28;19956;-48
2023/01/10 02:48:52;;;;;;;;;;;;;;;17.53;63.33;98038.63;2035848;28;20047;-50
2023/01/10 02:49:53;;;;;;;;;;;;;;;17.51;63.40;98040.69;2036136;28;19930;-52
2023/01/10 02:50:57;;;;;;;;;;;;;;;17.50;63.20;98032.88;2037832;28;20305;-52
2023/01/10 02:51:58;;;;;;;;;;;;;;;17.50;63.23;98041.72;2039512;28;19930;-51
2023/01/10 02:53:03;;;;;;;;;;;;;;;17.50;63.10;98039.06;2038848;28;20569;-49
2023/01/10 02:54:07;;;;;;;;;;;;;;;17.50;63.26;98041.72;2030820;28;20343;-52
2023/01/10 02:55:07;;;;;;;;;;;;;;;17.49;63.38;98041.94;2036293;28;19933;-49
2023/01/10 02:56:24;;;;;;;;;;;;;;;17.49;63.41;98049.97;2038047;28;19926;-52
2023/01/10 02:57:36;;;;;;;;;;;;;;;17.46;63.36;98042.34;2037464;28;19926;-51
2023/01/10 02:58:44;;;;;;;;;;;;;;;17.47;63.30;98039.47;2040412;28;19926;-50
2023/01/10 03:00:03;;;;;;;;;;;;;;;17.45;63.27;98041.53;2039374;28;19926;-47
2023/01/10 03:01:06;;;;;;;;;;;;;;;17.44;63.22;98034.53;2066952;28;19932;-52
2023/01/10 03:02:13;;;;;;;;;;;;;;;17.43;63.20;98040.91;2039964;28;19930;-48
2023/01/10 03:03:26;;;;;;;;;;;;;;;17.43;63.32;98033.69;2036889;28;19931;-48
2023/01/10 03:04:32;;;;;;;;;;;;;;;17.42;63.42;98041.97;2036403;28;20571;-49
2023/01/10 03:05:40;;;;;;;;;;;;;;;17.40;63.25;98034.13;2031478;28;19933;-50
2023/01/10 03:06:45;;;;;;;;;;;;;;;17.40;63.35;98044.03;2041734;28;19933;-47
2023/01/10 03:07:52;;;;;;;;;;;;;;;17.40;63.17;98033.28;2039369;28;20471;-48
2023/01/10 03:08:56;;;;;;;;;;;;;;;17.40;63.25;98044.03;2042067;28;19930;-48
2023/01/10 03:10:00;;;;;;;;;;;;;;;17.38;63.28;98038.88;2032936;28;19975;-49
2023/01/10 03:11:03;;;;;;;;;;;;;;;17.36;63.28;98038.25;2072382;28;19936;-53
2023/01/10 03:12:08;;;;;;;;;;;;;;;17.38;63.56;98048.75;2037681;28;20260;-49
2023/01/10 03:13:12;;;;;;;;;;;;;;;17.36;63.45;98040.94;2040015;28;20012;-49
2023/01/10 03:14:15;;;;;;;;;;;;;;;17.36;63.32;98046.31;2042155;28;19923;-50
2023/01/10 03:15:19;;;;;;;;;;;;;;;17.36;63.39;98049.00;2035281;28;19926;-49
2023/01/10 03:16:22;;;;;;;;;;;;;;;17.35;63.49;98051.88;2041840;28;19982;-47
2023/01/10 03:17:25;;;;;;;;;;;;;;;17.35;63.43;98052.69;2039508;28;19937;-48
2023/01/10 03:18:32;;;;;;;;;;;;;;;17.35;63.35;98057.22;2039877;28;19966;-48
2023/01/10 03:19:35;;;;;;;;;;;;;;;17.35;63.24;98057.22;2039310;28;19927;-51
2023/01/10 03:20:36;;;;;;;;;;;;;;;17.34;63.17;98056.41;2039611;28;19970;-48
2023/01/10 03:21:39;;;;;;;;;;;;;;;17.31;63.63;98056.81;2035592;28;19922;-49
2023/01/10 03:22:40;;;;;;;;;;;;;;;17.31;63.40;98064.06;2039068;28;19942;-47
2023/01/10 03:23:42;;;;;;;;;;;;;;;17.33;63.43;98062.00;2036625;28;19930;-50
2023/01/10 03:24:46;;;;;;;;;;;;;;;17.33;63.38;98065.50;2042609;28;19930;-47
2023/01/10 03:25:48;;;;;;;;;;;;;;;17.32;63.23;98057.66;2038592;28;20070;-47
2023/01/10 03:26:53;;;;;;;;;;;;;;;17.33;63.30;98064.66;2038626;28;20017;-50
2023/01/10 03:27:59;;;;;;;;;;;;;;;17.30;63.50;98059.69;2038868;28;19937;-49
2023/01/10 03:29:03;;;;;;;;;;;;;;;17.29;63.31;98058.06;2035913;28;19937;-51
2023/01/10 03:30:05;;;;;;;;;;;;;;;17.29;63.32;98063.44;2033721;28;20013;-48
2023/01/10 03:31:10;;;;;;;;;;;;;;;17.30;63.18;98062.38;2040627;28;19933;-49
2023/01/10 03:32:13;;;;;;;;;;;;;;;17.29;63.45;98064.25;2036790;28;19930;-47
2023/01/10 03:33:18;;;;;;;;;;;;;;;17.26;63.31;98067.34;2036147;28;19931;-52
2023/01/10 03:34:20;;;;;;;;;;;;;;;17.27;63.44;98060.13;2043362;28;19930;-47
2023/01/10 03:35:24;;;;;;;;;;;;;;;17.26;63.40;98066.53;2041753;28;19930;-50
2023/01/10 03:36:30;;;;;;;;;;;;;;;17.24;63.25;98066.72;2034166;28;20512;-51
2023/01/10 03:37:35;;;;;;;;;;;;;;;17.27;63.23;98071.66;2037337;28;19933;-50
2023/01/10 03:38:40;;;;;;;;;;;;;;;17.28;63.41;98073.31;2040551;28;19926;-49
2023/01/10 03:39:45;;;;;;;;;;;;;;;17.27;63.39;98084.25;2041990;28;20034;-52
2023/01/10 03:40:51;;;;;;;;;;;;;;;17.24;63.28;98082.81;2034112;28;20932;-51
2023/01/10 03:41:59;;;;;;;;;;;;;;;17.25;63.27;98079.09;2033234;28;20005;-51
2023/01/10 03:44:43;;;;;;;;;;;;;;;17.24;63.36;98095.38;2039264;28;19930;-49
2023/01/10 03:45:48;;;;;;;;;;;;;;;17.22;63.57;98094.75;2038425;28;20366;-51
2023/01/10 03:46:51;;;;;;;;;;;;;;;17.19;63.53;98096.84;2037770;28;20501;-50
2023/01/10 03:47:55;;;;;;;;;;;;;;;17.19;63.32;98102.19;2040859;28;19926;-47
2023/01/10 03:48:57;;;;;;;;;;;;;;;17.20;63.50;98103.84;2040488;28;19926;-49
2023/01/10 03:50:01;;;;;;;;;;;;;;;17.18;63.53;98095.19;2041154;28;19930;-48
2023/01/10 03:51:04;;;;;;;;;;;;;;;17.20;63.44;98095.81;2041594;28;20025;-52
2023/01/10 03:52:06;;;;;;;;;;;;;;;17.18;63.46;98108.56;2040340;28;19926;-50
2023/01/10 03:53:07;;;;;;;;;;;;;;;17.17;63.45;98109.63;2042005;28;19926;-50
2023/01/10 03:54:08;;;;;;;;;;;;;;;17.16;63.43;98113.34;2040004;28;19956;-48
2023/01/10 03:55:10;;;;;;;;;;;;;;;17.17;63.45;98114.16;2038762;28;19956;-48
2023/01/10 03:56:12;;;;;;;;;;;;;;;17.17;63.55;98106.13;2039237;28;20406;-51
2023/01/10 03:57:18;;;;;;;;;;;;;;;17.16;63.34;98107.97;2038230;28;19961;-49
2023/01/10 03:58:20;;;;;;;;;;;;;;;17.14;63.36;98109.22;2043064;28;20266;-51
2023/01/10 03:59:24;;;;;;;;;;;;;;;17.13;63.59;98119.13;2040910;28;19937;-49
2023/01/10 04:00:25;;;;;;;;;;;;;;;17.15;63.47;98110.84;2040764;28;19953;-48
2023/01/10 04:01:26;;;;;;;;;;;;;;;17.13;63.52;98112.91;2039323;28;20428;-50
2023/01/10 04:02:28;;;;;;;;;;;;;;;17.12;63.38;98117.44;2036951;28;20486;-48
2023/01/10 04:03:29;;;;;;;;;;;;;;;17.13;63.59;98108.41;2039424;28;19984;-52
2023/01/10 04:04:31;;;;;;;;;;;;;;;17.15;63.55;98117.03;2038220;28;19930;-49
2023/01/10 04:05:33;;;;;;;;;;;;;;;17.14;63.29;98118.06;2043522;28;19930;-49
2023/01/10 04:06:34;;;;;;;;;;;;;;;17.13;63.31;98120.94;2041931;28;19922;-50
2023/01/10 04:07:35;;;;;;;;;;;;;;;17.13;63.45;98118.25;2040377;28;19945;-48
2023/01/10 04:08:36;;;;;;;;;;;;;;;17.11;63.52;98117.66;2040051;28;19926;-49
2023/01/10 04:09:37;;;;;;;;;;;;;;;17.13;63.59;98126.31;2038438;28;19968;-53
2023/01/10 04:10:38;;;;;;;;;;;;;;;17.11;63.49;98126.53;2040391;28;19930;-49
2023/01/10 04:11:39;;;;;;;;;;;;;;;17.12;63.26;98132.72;2044284;28;19936;-49
2023/01/10 04:12:40;;;;;;;;;;;;;;;17.12;63.26;98132.72;2038419;28;19965;-52
2023/01/10 04:13:42;;;;;;;;;;;;;;;17.13;63.21;98134.34;2042611;28;20480;-51
2023/01/10 04:14:45;;;;;;;;;;;;;;;17.10;63.32;98138.25;2039162;28;20038;-49
2023/01/10 04:15:47;;;;;;;;;;;;;;;17.08;63.31;98132.31;2042348;28;19973;-50
2023/01/10 04:16:47;;;;;;;;;;;;;;;17.09;63.43;98144.66;2039893;28;19922;-51
2023/01/10 04:17:49;;;;;;;;;;;;;;;17.07;63.47;98138.66;2036111;28;20305;-50
2023/01/10 04:18:49;;;;;;;;;;;;;;;17.08;63.53;98144.88;2039229;28;19930;-48
2023/01/10 04:19:51;;;;;;;;;;;;;;;17.07;63.58;98146.72;2038415;28;19976;-49
2023/01/10 04:20:52;;;;;;;;;;;;;;;17.07;63.44;98149.38;2045026;28;19983;-53
2023/01/10 04:21:54;;;;;;;;;;;;;;;17.04;63.48;98146.31;2040695;28;19926;-48
2023/01/10 04:22:54;;;;;;;;;;;;;;;17.04;63.48;98148.97;2039149;28;19923;-50
2023/01/10 04:23:56;;;;;;;;;;;;;;;17.05;63.47;98150.63;2042465;28;19930;-49
2023/01/10 04:24:57;;;;;;;;;;;;;;;17.06;63.38;98154.97;2041393;28;19923;-51
2023/01/10 04:25:58;;;;;;;;;;;;;;;17.05;63.47;98154.16;2043792;28;20020;-48
2023/01/10 04:26:59;;;;;;;;;;;;;;;17.05;63.58;98159.50;2039259;28;19939;-50
2023/01/10 04:28:00;;;;;;;;;;;;;;;17.05;63.33;98154.16;2036477;28;20012;-51
2023/01/10 04:29:01;;;;;;;;;;;;;;;17.04;63.46;98157.84;2039437;28;19930;-49
2023/01/10 04:30:02;;;;;;;;;;;;;;;17.03;63.49;98156.19;2035334;28;19926;-51
2023/01/10 04:31:04;;;;;;;;;;;;;;;17.04;63.48;98157.03;2036976;28;19951;-48
2023/01/10 04:32:04;;;;;;;;;;;;;;;17.01;63.55;98158.25;2033421;28;19958;-50
2023/01/10 04:33:06;;;;;;;;;;;;;;;17.00;63.57;98156.63;2039027;28;19937;-51
2023/01/10 04:34:06;;;;;;;;;;;;;;;16.99;63.44;98171.03;2037788;28;19975;-51
2023/01/10 04:35:08;;;;;;;;;;;;;;;16.97;63.59;98165.06;2039396;28;19983;-51
2023/01/10 04:36:11;;;;;;;;;;;;;;;17.01;63.71;98173.50;2035764;28;19933;-51
2023/01/10 04:37:11;;;;;;;;;;;;;;;17.05;63.39;98169.38;2035148;28;19975;-51
2023/01/10 04:38:13;;;;;;;;;;;;;;;17.10;63.23;98174.94;2038498;28;19927;-48
2023/01/10 04:39:15;;;;;;;;;;;;;;;17.18;63.00;98169.38;2037699;28;19930;-52
2023/01/10 04:40:16;;;;;;;;;;;;;;;17.26;62.67;98176.41;2036624;28;19922;-51
2023/01/10 04:41:17;;;;;;;;;;;;;;;17.32;62.62;98170.22;2035882;28;19933;-48
2023/01/10 04:42:18;;;;;;;;;;;;;;;17.39;62.46;98174.56;2037927;28;19930;-48
2023/01/10 04:43:19;;;;;;;;;;;;;;;17.41;62.21;98171.66;2040810;28;20278;-49
2023/01/10 04:44:19;;;;;;;;;;;;;;;17.46;62.42;98173.72;2035084;28;19975;-52
2023/01/10 04:45:21;;;;;;;;;;;;;;;17.51;62.45;98166.72;2036823;28;19926;-47
2023/01/10 04:46:22;;;;;;;;;;;;;;;17.57;62.38;98173.91;2039359;28;20305;-48
2023/01/10 04:47:24;;;;;;;;;;;;;;;17.61;62.15;98175.16;2036598;28;19930;-49
2023/01/10 04:48:25;;;;;;;;;;;;;;;17.63;62.19;98178.47;2039793;28;19948;-50
2023/01/10 04:49:27;;;;;;;;;;;;;;;17.64;62.26;98188.16;2040035;28;19934;-50
2023/01/10 04:50:28;;;;;;;;;;;;;;;17.69;62.29;98187.53;2040365;28;21425;-50
2023/01/10 04:51:31;;;;;;;;;;;;;;;17.74;62.28;98195.75;2039060;28;19933;-52
2023/01/10 04:52:31;;;;;;;;;;;;;;;17.79;61.96;98195.19;2039856;28;19930;-48
2023/01/10 04:53:33;;;;;;;;;;;;;;;17.82;61.97;98200.94;2037114;28;19936;-51
2023/01/10 04:54:33;;;;;;;;;;;;;;;17.89;61.90;98202.81;2040013;28;19926;-48
2023/01/10 04:55:35;;;;;;;;;;;;;;;17.91;61.90;98203.41;2038960;28;20394;-50
2023/01/10 04:56:35;;;;;;;;;;;;;;;17.93;61.95;98210.22;2035251;28;19953;-49
2023/01/10 04:57:37;;;;;;;;;;;;;;;17.93;62.05;98210.22;2038417;28;19926;-50
2023/01/10 04:58:37;;;;;;;;;;;;;;;17.99;61.64;98217.41;2039304;28;19930;-48
2023/01/10 04:59:39;;;;;;;;;;;;;;;18.00;62.00;98210.22;2035861;28;20261;-49
2023/01/10 05:00:39;;;;;;;;;;;;;;;18.03;61.93;98207.09;2039300;28;19933;-48
2023/01/10 05:01:41;;;;;;;;;;;;;;;18.08;61.82;98215.34;2042916;28;19926;-50
2023/01/10 05:02:42;;;;;;;;;;;;;;;18.10;61.75;98210.59;2039982;28;19956;-50
2023/01/10 05:03:44;;;;;;;;;;;;;;;18.09;61.63;98207.09;2037141;28;19926;-51
2023/01/10 05:04:44;;;;;;;;;;;;;;;18.15;61.82;98218.84;2037760;28;20028;-52
2023/01/10 05:05:46;;;;;;;;;;;;;;;18.16;61.52;98216.97;2037898;28;19941;-50
2023/01/10 05:06:48;;;;;;;;;;;;;;;18.15;61.73;98215.34;2039271;28;19926;-49
2023/01/10 05:07:50;;;;;;;;;;;;;;;18.17;61.81;98215.97;2038871;28;19926;-51
2023/01/10 05:08:51;;;;;;;;;;;;;;;18.21;61.70;98219.84;2041299;28;19926;-52
2023/01/10 05:09:52;;;;;;;;;;;;;;;18.23;61.42;98218.59;2038641;28;20845;-52
2023/01/10 05:10:53;;;;;;;;;;;;;;;18.24;61.58;98228.28;2037194;28;19930;-49
2023/01/10 05:11:54;;;;;;;;;;;;;;;18.25;61.72;98226.47;2038109;28;20352;-49
2023/01/10 05:12:54;;;;;;;;;;;;;;;18.27;61.49;98227.06;2038460;28;19979;-50
2023/01/10 05:13:56;;;;;;;;;;;;;;;18.26;61.48;98236.16;2038801;28;19927;-48
2023/01/10 05:14:56;;;;;;;;;;;;;;;18.26;61.50;98234.28;2035385;28;19934;-49
2023/01/10 05:15:58;;;;;;;;;;;;;;;18.32;61.65;98229.94;2039942;28;20309;-48
2023/01/10 05:16:59;;;;;;;;;;;;;;;18.30;61.67;98235.53;2039963;28;19934;-48
2023/01/10 05:18:00;;;;;;;;;;;;;;;18.32;61.71;98235.31;2037923;28;23834;-48
2023/01/10 05:19:01;;;;;;;;;;;;;;;18.35;61.43;98242.94;2040442;28;19922;-51
2023/01/10 05:20:03;;;;;;;;;;;;;;;18.38;61.64;98244.38;2037344;28;19923;-53
2023/01/10 05:21:04;;;;;;;;;;;;;;;18.39;61.51;98240.69;2036336;28;20389;-49
2023/01/10 05:22:07;;;;;;;;;;;;;;;18.42;61.47;98238.38;2034521;28;19922;-50
2023/01/10 05:23:07;;;;;;;;;;;;;;;18.49;61.41;98241.03;2039649;28;19926;-50
2023/01/10 05:24:09;;;;;;;;;;;;;;;18.51;61.18;98245.16;2035662;28;19926;-52
2023/01/10 05:25:09;;;;;;;;;;;;;;;18.52;61.29;98233.38;2039525;28;19934;-50
2023/01/10 05:26:13;;;;;;;;;;;;;;;18.53;61.36;98231.53;2038928;28;19934;-50
2023/01/10 05:27:13;;;;;;;;;;;;;;;18.57;61.22;98239.97;2036987;28;19994;-52
2023/01/10 05:28:15;;;;;;;;;;;;;;;18.61;60.81;98239.34;2037689;28;19991;-49
2023/01/10 05:29:15;;;;;;;;;;;;;;;18.58;61.10;98238.94;2033494;28;19926;-51
2023/01/10 05:30:17;;;;;;;;;;;;;;;18.61;61.09;98244.72;2036536;28;22419;-52
2023/01/10 05:31:18;;;;;;;;;;;;;;;18.62;61.35;98242.84;2037040;28;20908;-49
2023/01/10 05:32:20;;;;;;;;;;;;;;;18.63;61.16;98248.00;2035180;28;19930;-48
2023/01/10 05:33:21;;;;;;;;;;;;;;;18.65;61.05;98258.53;2037579;28;20465;-51
2023/01/10 05:34:22;;;;;;;;;;;;;;;18.66;60.86;98254.81;2041566;28;19977;-49
2023/01/10 05:35:23;;;;;;;;;;;;;;;18.69;61.22;98257.06;2037498;28;21032;-49